sensor_id;sensor_type;location;lat;lon;timestamp;P1;durP1;ratioP1;P2;durP2;ratioP2
5951;SDS011;3001;42.622;23.194;2023-07-31T00:02:12;4.97;;;4.50;;
5951;SDS011;3001;42.622;23.194;2023-07-31T00:04:40;5.83;;;5.33;;
5951;SDS011;3001;42.622;23.194;2023-07-31T00:07:07;4.67;;;4.30;;
5951;SDS011;3001;42.622;23.194;2023-07-31T00:09:33;4.60;;;4.30;;
5951;SDS011;3001;42.622;23.194;2023-07-31T00:12:00;4.70;;;4.40;;
5951;SDS011;3001;42.622;23.194;2023-07-31T00:14:27;4.60;;;4.40;;
5951;SDS011;3001;42.622;23.194;2023-07-31T00:16:53;4.57;;;4.37;;
5951;SDS011;3001;42.622;23.194;2023-07-31T00:19:20;4.97;;;4.63;;
5951;SDS011;3001;42.622;23.194;2023-07-31T00:21:48;4.40;;;4.20;;
5951;SDS011;3001;42.622;23.194;2023-07-31T00:24:15;4.37;;;4.17;;
5951;SDS011;3001;42.622;23.194;2023-07-31T00:26:42;4.87;;;4.57;;
5951;SDS011;3001;42.622;23.194;2023-07-31T00:29:08;4.80;;;4.60;;
5951;SDS011;3001;42.622;23.194;2023-07-31T00:31:35;4.87;;;4.67;;
5951;SDS011;3001;42.622;23.194;2023-07-31T00:34:02;5.03;;;4.83;;
5951;SDS011;3001;42.622;23.194;2023-07-31T00:36:28;4.80;;;4.60;;
5951;SDS011;3001;42.622;23.194;2023-07-31T00:38:56;4.50;;;4.30;;
5951;SDS011;3001;42.622;23.194;2023-07-31T00:41:23;5.07;;;4.87;;
5951;SDS011;3001;42.622;23.194;2023-07-31T00:43:50;4.83;;;4.53;;
5951;SDS011;3001;42.622;23.194;2023-07-31T00:46:16;5.90;;;5.40;;
5951;SDS011;3001;42.622;23.194;2023-07-31T00:48:43;4.83;;;4.53;;
5951;SDS011;3001;42.622;23.194;2023-07-31T00:51:10;6.60;;;5.87;;
5951;SDS011;3001;42.622;23.194;2023-07-31T00:53:37;5.00;;;4.80;;
5951;SDS011;3001;42.622;23.194;2023-07-31T00:56:06;5.20;;;4.70;;
5951;SDS011;3001;42.622;23.194;2023-07-31T00:58:33;5.60;;;5.20;;
5951;SDS011;3001;42.622;23.194;2023-07-31T01:00:59;5.23;;;4.83;;
5951;SDS011;3001;42.622;23.194;2023-07-31T01:03:26;5.17;;;4.97;;
5951;SDS011;3001;42.622;23.194;2023-07-31T01:05:56;5.10;;;4.90;;
5951;SDS011;3001;42.622;23.194;2023-07-31T01:08:36;5.80;;;5.50;;
5951;SDS011;3001;42.622;23.194;2023-07-31T01:11:09;5.97;;;5.70;;
5951;SDS011;3001;42.622;23.194;2023-07-31T01:13:42;7.00;;;6.60;;
5951;SDS011;3001;42.622;23.194;2023-07-31T01:16:09;8.57;;;8.07;;
5951;SDS011;3001;42.622;23.194;2023-07-31T01:18:35;7.70;;;7.30;;
5951;SDS011;3001;42.622;23.194;2023-07-31T01:21:03;7.13;;;6.60;;
5951;SDS011;3001;42.622;23.194;2023-07-31T01:23:51;7.97;;;7.57;;
5951;SDS011;3001;42.622;23.194;2023-07-31T01:26:36;10.47;;;9.67;;
5951;SDS011;3001;42.622;23.194;2023-07-31T01:29:07;10.63;;;9.93;;
5951;SDS011;3001;42.622;23.194;2023-07-31T01:31:36;12.27;;;11.37;;
5951;SDS011;3001;42.622;23.194;2023-07-31T01:34:04;10.87;;;10.17;;
5951;SDS011;3001;42.622;23.194;2023-07-31T01:36:34;9.53;;;8.93;;
5951;SDS011;3001;42.622;23.194;2023-07-31T01:39:01;16.10;;;14.70;;
5951;SDS011;3001;42.622;23.194;2023-07-31T01:41:28;14.60;;;13.37;;
5951;SDS011;3001;42.622;23.194;2023-07-31T01:43:56;12.67;;;11.63;;
5951;SDS011;3001;42.622;23.194;2023-07-31T01:46:23;13.00;;;12.10;;
5951;SDS011;3001;42.622;23.194;2023-07-31T01:48:50;11.77;;;10.83;;
5951;SDS011;3001;42.622;23.194;2023-07-31T01:51:17;12.23;;;11.43;;
5951;SDS011;3001;42.622;23.194;2023-07-31T01:53:43;15.47;;;14.17;;
5951;SDS011;3001;42.622;23.194;2023-07-31T01:56:10;18.07;;;16.47;;
5951;SDS011;3001;42.622;23.194;2023-07-31T01:58:37;21.50;;;19.40;;
5951;SDS011;3001;42.622;23.194;2023-07-31T02:01:05;18.03;;;16.40;;
5951;SDS011;3001;42.622;23.194;2023-07-31T02:03:31;16.70;;;15.27;;
5951;SDS011;3001;42.622;23.194;2023-07-31T02:05:58;20.47;;;18.50;;
5951;SDS011;3001;42.622;23.194;2023-07-31T02:08:25;21.03;;;19.07;;
5951;SDS011;3001;42.622;23.194;2023-07-31T02:10:51;20.37;;;18.43;;
5951;SDS011;3001;42.622;23.194;2023-07-31T02:13:18;19.60;;;17.80;;
5951;SDS011;3001;42.622;23.194;2023-07-31T02:15:45;24.10;;;21.67;;
5951;SDS011;3001;42.622;23.194;2023-07-31T02:18:13;22.63;;;20.30;;
5951;SDS011;3001;42.622;23.194;2023-07-31T02:20:40;24.10;;;21.60;;
5951;SDS011;3001;42.622;23.194;2023-07-31T02:23:06;24.00;;;21.60;;
5951;SDS011;3001;42.622;23.194;2023-07-31T02:25:33;23.17;;;20.87;;
5951;SDS011;3001;42.622;23.194;2023-07-31T02:28:00;21.83;;;19.80;;
5951;SDS011;3001;42.622;23.194;2023-07-31T02:30:27;23.13;;;20.83;;
5951;SDS011;3001;42.622;23.194;2023-07-31T02:32:53;23.00;;;20.63;;
5951;SDS011;3001;42.622;23.194;2023-07-31T02:35:21;21.73;;;19.73;;
5951;SDS011;3001;42.622;23.194;2023-07-31T02:37:48;20.60;;;18.70;;
5951;SDS011;3001;42.622;23.194;2023-07-31T02:40:15;23.87;;;21.53;;
5951;SDS011;3001;42.622;23.194;2023-07-31T02:42:41;23.13;;;20.80;;
5951;SDS011;3001;42.622;23.194;2023-07-31T02:45:08;22.13;;;20.03;;
5951;SDS011;3001;42.622;23.194;2023-07-31T02:47:35;22.87;;;20.53;;
5951;SDS011;3001;42.622;23.194;2023-07-31T02:50:02;22.60;;;20.30;;
5951;SDS011;3001;42.622;23.194;2023-07-31T02:52:30;24.80;;;20.93;;
5951;SDS011;3001;42.622;23.194;2023-07-31T02:54:57;25.57;;;23.10;;
5951;SDS011;3001;42.622;23.194;2023-07-31T02:57:23;25.17;;;22.50;;
5951;SDS011;3001;42.622;23.194;2023-07-31T02:59:50;26.27;;;23.47;;
5951;SDS011;3001;42.622;23.194;2023-07-31T03:02:17;28.10;;;23.97;;
5951;SDS011;3001;42.622;23.194;2023-07-31T03:04:43;27.13;;;24.23;;
5951;SDS011;3001;42.622;23.194;2023-07-31T03:07:10;26.27;;;22.13;;
5951;SDS011;3001;42.622;23.194;2023-07-31T03:09:38;23.37;;;21.13;;
5951;SDS011;3001;42.622;23.194;2023-07-31T03:12:05;27.40;;;24.10;;
5951;SDS011;3001;42.622;23.194;2023-07-31T03:14:32;27.27;;;24.40;;
5951;SDS011;3001;42.622;23.194;2023-07-31T03:16:59;28.50;;;24.27;;
5951;SDS011;3001;42.622;23.194;2023-07-31T03:19:26;25.57;;;22.90;;
5951;SDS011;3001;42.622;23.194;2023-07-31T03:21:52;26.87;;;23.13;;
5951;SDS011;3001;42.622;23.194;2023-07-31T03:24:19;25.33;;;22.80;;
5951;SDS011;3001;42.622;23.194;2023-07-31T03:26:47;25.57;;;22.87;;
5951;SDS011;3001;42.622;23.194;2023-07-31T03:29:14;26.10;;;23.03;;
5951;SDS011;3001;42.622;23.194;2023-07-31T03:31:40;30.50;;;22.93;;
5951;SDS011;3001;42.622;23.194;2023-07-31T03:34:07;28.83;;;23.10;;
5951;SDS011;3001;42.622;23.194;2023-07-31T03:36:33;26.23;;;23.00;;
5951;SDS011;3001;42.622;23.194;2023-07-31T03:39:00;28.97;;;23.00;;
5951;SDS011;3001;42.622;23.194;2023-07-31T03:41:27;27.93;;;23.93;;
5951;SDS011;3001;42.622;23.194;2023-07-31T03:43:55;24.50;;;21.47;;
5951;SDS011;3001;42.622;23.194;2023-07-31T03:46:22;27.63;;;22.80;;
5951;SDS011;3001;42.622;23.194;2023-07-31T03:48:48;29.20;;;23.77;;
5951;SDS011;3001;42.622;23.194;2023-07-31T03:51:15;31.23;;;25.40;;
5951;SDS011;3001;42.622;23.194;2023-07-31T03:53:42;28.57;;;23.30;;
5951;SDS011;3001;42.622;23.194;2023-07-31T03:56:09;26.87;;;22.70;;
5951;SDS011;3001;42.622;23.194;2023-07-31T03:58:36;30.87;;;23.63;;
5951;SDS011;3001;42.622;23.194;2023-07-31T04:01:05;28.03;;;23.27;;
5951;SDS011;3001;42.622;23.194;2023-07-31T04:03:32;27.67;;;22.70;;
5951;SDS011;3001;42.622;23.194;2023-07-31T04:05:59;26.07;;;23.17;;
5951;SDS011;3001;42.622;23.194;2023-07-31T04:08:25;24.87;;;22.00;;
5951;SDS011;3001;42.622;23.194;2023-07-31T04:10:52;31.03;;;23.27;;
5951;SDS011;3001;42.622;23.194;2023-07-31T04:13:19;33.50;;;23.97;;
5951;SDS011;3001;42.622;23.194;2023-07-31T04:15:47;32.10;;;24.27;;
5951;SDS011;3001;42.622;23.194;2023-07-31T04:18:16;28.10;;;23.03;;
5951;SDS011;3001;42.622;23.194;2023-07-31T04:20:43;29.40;;;22.77;;
5951;SDS011;3001;42.622;23.194;2023-07-31T04:23:10;28.37;;;22.33;;
5951;SDS011;3001;42.622;23.194;2023-07-31T04:25:37;26.10;;;21.73;;
5951;SDS011;3001;42.622;23.194;2023-07-31T04:28:04;30.07;;;22.33;;
5951;SDS011;3001;42.622;23.194;2023-07-31T04:30:30;26.43;;;22.20;;
5951;SDS011;3001;42.622;23.194;2023-07-31T04:32:57;27.60;;;22.40;;
5951;SDS011;3001;42.622;23.194;2023-07-31T04:35:25;28.77;;;22.10;;
5951;SDS011;3001;42.622;23.194;2023-07-31T04:37:52;27.80;;;21.63;;
5951;SDS011;3001;42.622;23.194;2023-07-31T04:40:18;25.70;;;21.70;;
5951;SDS011;3001;42.622;23.194;2023-07-31T04:42:45;27.47;;;21.67;;
5951;SDS011;3001;42.622;23.194;2023-07-31T04:45:12;33.20;;;22.37;;
5951;SDS011;3001;42.622;23.194;2023-07-31T04:47:39;26.60;;;22.00;;
5951;SDS011;3001;42.622;23.194;2023-07-31T04:50:06;26.70;;;22.00;;
5951;SDS011;3001;42.622;23.194;2023-07-31T04:52:34;29.50;;;22.13;;
5951;SDS011;3001;42.622;23.194;2023-07-31T04:55:01;25.37;;;21.40;;
5951;SDS011;3001;42.622;23.194;2023-07-31T04:57:28;30.77;;;21.07;;
5951;SDS011;3001;42.622;23.194;2023-07-31T04:59:54;28.60;;;23.10;;
5951;SDS011;3001;42.622;23.194;2023-07-31T05:02:21;29.03;;;22.67;;
5951;SDS011;3001;42.622;23.194;2023-07-31T05:04:48;22.80;;;20.37;;
5951;SDS011;3001;42.622;23.194;2023-07-31T05:07:14;26.20;;;20.27;;
5951;SDS011;3001;42.622;23.194;2023-07-31T05:09:43;21.23;;;18.90;;
5951;SDS011;3001;42.622;23.194;2023-07-31T05:12:10;21.73;;;19.47;;
5951;SDS011;3001;42.622;23.194;2023-07-31T05:14:37;21.43;;;19.30;;
5951;SDS011;3001;42.622;23.194;2023-07-31T05:17:03;24.07;;;19.77;;
5951;SDS011;3001;42.622;23.194;2023-07-31T05:19:30;18.83;;;16.87;;
5951;SDS011;3001;42.622;23.194;2023-07-31T05:21:57;17.67;;;16.07;;
5951;SDS011;3001;42.622;23.194;2023-07-31T05:24:24;16.80;;;15.43;;
5951;SDS011;3001;42.622;23.194;2023-07-31T05:26:52;18.43;;;16.80;;
5951;SDS011;3001;42.622;23.194;2023-07-31T05:29:19;17.40;;;15.70;;
5951;SDS011;3001;42.622;23.194;2023-07-31T05:31:46;17.03;;;15.47;;
5951;SDS011;3001;42.622;23.194;2023-07-31T05:34:13;17.90;;;16.30;;
5951;SDS011;3001;42.622;23.194;2023-07-31T05:36:39;17.37;;;15.77;;
5951;SDS011;3001;42.622;23.194;2023-07-31T05:39:06;17.27;;;15.67;;
5951;SDS011;3001;42.622;23.194;2023-07-31T05:41:33;17.27;;;15.67;;
5951;SDS011;3001;42.622;23.194;2023-07-31T05:44:03;14.67;;;13.40;;
5951;SDS011;3001;42.622;23.194;2023-07-31T05:46:30;14.87;;;13.67;;
5951;SDS011;3001;42.622;23.194;2023-07-31T05:48:57;14.67;;;13.57;;
5951;SDS011;3001;42.622;23.194;2023-07-31T05:51:25;14.87;;;13.67;;
5951;SDS011;3001;42.622;23.194;2023-07-31T05:53:52;16.17;;;14.57;;
5951;SDS011;3001;42.622;23.194;2023-07-31T05:56:19;16.03;;;14.43;;
5951;SDS011;3001;42.622;23.194;2023-07-31T05:58:46;13.23;;;12.33;;
5951;SDS011;3001;42.622;23.194;2023-07-31T06:01:16;13.77;;;12.47;;
5951;SDS011;3001;42.622;23.194;2023-07-31T06:03:43;12.90;;;11.90;;
5951;SDS011;3001;42.622;23.194;2023-07-31T06:06:10;11.43;;;10.63;;
5951;SDS011;3001;42.622;23.194;2023-07-31T06:08:38;11.23;;;10.50;;
5951;SDS011;3001;42.622;23.194;2023-07-31T06:11:05;9.17;;;8.57;;
5951;SDS011;3001;42.622;23.194;2023-07-31T06:13:33;8.93;;;8.33;;
5951;SDS011;3001;42.622;23.194;2023-07-31T06:16:00;6.50;;;6.10;;
5951;SDS011;3001;42.622;23.194;2023-07-31T06:18:31;5.83;;;5.53;;
5951;SDS011;3001;42.622;23.194;2023-07-31T06:20:58;6.37;;;5.80;;
5951;SDS011;3001;42.622;23.194;2023-07-31T06:23:25;7.57;;;7.17;;
5951;SDS011;3001;42.622;23.194;2023-07-31T06:25:51;6.77;;;6.37;;
5951;SDS011;3001;42.622;23.194;2023-07-31T06:28:18;7.87;;;7.27;;
5951;SDS011;3001;42.622;23.194;2023-07-31T06:30:45;8.53;;;7.97;;
5951;SDS011;3001;42.622;23.194;2023-07-31T06:33:12;9.23;;;8.73;;
5951;SDS011;3001;42.622;23.194;2023-07-31T06:35:40;8.50;;;8.00;;
5951;SDS011;3001;42.622;23.194;2023-07-31T06:38:07;8.13;;;7.73;;
5951;SDS011;3001;42.622;23.194;2023-07-31T06:40:33;7.47;;;7.07;;
5951;SDS011;3001;42.622;23.194;2023-07-31T06:43:00;7.20;;;6.80;;
5951;SDS011;3001;42.622;23.194;2023-07-31T06:45:32;5.67;;;5.37;;
5951;SDS011;3001;42.622;23.194;2023-07-31T06:47:59;6.20;;;5.90;;
5951;SDS011;3001;42.622;23.194;2023-07-31T06:50:27;6.30;;;6.00;;
5951;SDS011;3001;42.622;23.194;2023-07-31T06:52:55;5.27;;;5.07;;
5951;SDS011;3001;42.622;23.194;2023-07-31T06:55:22;5.77;;;5.53;;
5951;SDS011;3001;42.622;23.194;2023-07-31T06:57:50;5.93;;;5.43;;
5951;SDS011;3001;42.622;23.194;2023-07-31T07:00:18;4.30;;;4.10;;
5951;SDS011;3001;42.622;23.194;2023-07-31T07:02:46;4.10;;;3.90;;
5951;SDS011;3001;42.622;23.194;2023-07-31T07:05:13;4.20;;;3.90;;
5951;SDS011;3001;42.622;23.194;2023-07-31T07:07:40;4.23;;;3.93;;
5951;SDS011;3001;42.622;23.194;2023-07-31T07:10:09;4.10;;;3.90;;
5951;SDS011;3001;42.622;23.194;2023-07-31T07:12:36;4.00;;;3.80;;
5951;SDS011;3001;42.622;23.194;2023-07-31T07:15:03;3.73;;;3.53;;
5951;SDS011;3001;42.622;23.194;2023-07-31T07:17:30;3.03;;;2.90;;
5951;SDS011;3001;42.622;23.194;2023-07-31T07:19:57;3.23;;;3.13;;
5951;SDS011;3001;42.622;23.194;2023-07-31T07:22:24;3.17;;;3.07;;
5951;SDS011;3001;42.622;23.194;2023-07-31T07:24:51;4.00;;;3.07;;
5951;SDS011;3001;42.622;23.194;2023-07-31T07:27:19;2.60;;;2.50;;
5951;SDS011;3001;42.622;23.194;2023-07-31T07:29:46;2.30;;;2.20;;
5951;SDS011;3001;42.622;23.194;2023-07-31T07:32:12;2.87;;;2.77;;
5951;SDS011;3001;42.622;23.194;2023-07-31T07:34:39;2.97;;;2.87;;
5951;SDS011;3001;42.622;23.194;2023-07-31T07:37:06;2.87;;;2.70;;
5951;SDS011;3001;42.622;23.194;2023-07-31T07:39:33;2.57;;;2.47;;
5951;SDS011;3001;42.622;23.194;2023-07-31T07:41:59;3.40;;;2.37;;
5951;SDS011;3001;42.622;23.194;2023-07-31T07:44:27;2.67;;;2.57;;
5951;SDS011;3001;42.622;23.194;2023-07-31T07:46:54;2.63;;;2.53;;
5951;SDS011;3001;42.622;23.194;2023-07-31T07:49:20;3.07;;;2.97;;
5951;SDS011;3001;42.622;23.194;2023-07-31T07:51:48;3.30;;;3.20;;
5951;SDS011;3001;42.622;23.194;2023-07-31T07:54:15;2.43;;;2.33;;
5951;SDS011;3001;42.622;23.194;2023-07-31T07:56:42;2.60;;;2.50;;
5951;SDS011;3001;42.622;23.194;2023-07-31T07:59:09;2.77;;;2.67;;
5951;SDS011;3001;42.622;23.194;2023-07-31T08:01:37;2.70;;;2.47;;
5951;SDS011;3001;42.622;23.194;2023-07-31T08:04:04;2.43;;;2.33;;
5951;SDS011;3001;42.622;23.194;2023-07-31T08:06:30;2.70;;;2.60;;
5951;SDS011;3001;42.622;23.194;2023-07-31T08:08:57;2.23;;;2.13;;
5951;SDS011;3001;42.622;23.194;2023-07-31T08:11:24;2.50;;;2.30;;
5951;SDS011;3001;42.622;23.194;2023-07-31T08:13:51;2.77;;;2.57;;
5951;SDS011;3001;42.622;23.194;2023-07-31T08:16:17;2.20;;;2.10;;
5951;SDS011;3001;42.622;23.194;2023-07-31T08:18:45;2.30;;;2.20;;
5951;SDS011;3001;42.622;23.194;2023-07-31T08:21:12;2.67;;;2.57;;
5951;SDS011;3001;42.622;23.194;2023-07-31T08:23:38;3.90;;;2.97;;
5951;SDS011;3001;42.622;23.194;2023-07-31T08:45:40;2.97;;;2.78;;
5951;SDS011;3001;42.622;23.194;2023-07-31T08:48:08;2.50;;;2.40;;
5951;SDS011;3001;42.622;23.194;2023-07-31T08:50:35;2.60;;;2.50;;
5951;SDS011;3001;42.622;23.194;2023-07-31T08:53:02;3.22;;;3.13;;
5951;SDS011;3001;42.622;23.194;2023-07-31T08:55:29;2.23;;;2.10;;
5951;SDS011;3001;42.622;23.194;2023-07-31T08:57:57;2.50;;;2.40;;
5951;SDS011;3001;42.622;23.194;2023-07-31T09:00:25;2.67;;;2.40;;
5951;SDS011;3001;42.622;23.194;2023-07-31T09:02:56;2.50;;;2.40;;
5951;SDS011;3001;42.622;23.194;2023-07-31T09:05:28;1.77;;;1.77;;
5951;SDS011;3001;42.622;23.194;2023-07-31T09:07:56;2.80;;;2.70;;
5951;SDS011;3001;42.622;23.194;2023-07-31T09:10:24;4.07;;;2.60;;
5951;SDS011;3001;42.622;23.194;2023-07-31T09:12:51;3.10;;;2.93;;
5951;SDS011;3001;42.622;23.194;2023-07-31T09:15:18;3.92;;;3.72;;
5951;SDS011;3001;42.622;23.194;2023-07-31T09:17:46;2.38;;;2.28;;
5951;SDS011;3001;42.622;23.194;2023-07-31T09:20:14;2.80;;;2.70;;
5951;SDS011;3001;42.622;23.194;2023-07-31T09:22:43;2.67;;;2.58;;
5951;SDS011;3001;42.622;23.194;2023-07-31T09:25:16;2.70;;;2.50;;
5951;SDS011;3001;42.622;23.194;2023-07-31T09:58:56;2.92;;;2.63;;
5951;SDS011;3001;42.622;23.194;2023-07-31T10:01:23;2.65;;;2.53;;
5951;SDS011;3001;42.622;23.194;2023-07-31T10:03:49;2.92;;;2.83;;
5951;SDS011;3001;42.622;23.194;2023-07-31T10:06:16;2.67;;;2.58;;
5951;SDS011;3001;42.622;23.194;2023-07-31T10:08:44;2.80;;;2.70;;
5951;SDS011;3001;42.622;23.194;2023-07-31T10:11:13;2.83;;;2.50;;
5951;SDS011;3001;42.622;23.194;2023-07-31T10:13:41;2.63;;;2.53;;
5951;SDS011;3001;42.622;23.194;2023-07-31T10:16:10;2.75;;;2.63;;
5951;SDS011;3001;42.622;23.194;2023-07-31T10:18:38;2.20;;;2.10;;
5951;SDS011;3001;42.622;23.194;2023-07-31T10:21:07;2.85;;;2.72;;
5951;SDS011;3001;42.622;23.194;2023-07-31T10:23:33;2.50;;;2.33;;
5951;SDS011;3001;42.622;23.194;2023-07-31T10:26:00;2.53;;;2.42;;
5951;SDS011;3001;42.622;23.194;2023-07-31T10:28:28;2.45;;;2.35;;
5951;SDS011;3001;42.622;23.194;2023-07-31T10:30:58;1.95;;;1.95;;
5951;SDS011;3001;42.622;23.194;2023-07-31T10:33:28;1.90;;;1.90;;
5951;SDS011;3001;42.622;23.194;2023-07-31T10:38:40;2.70;;;2.58;;
5951;SDS011;3001;42.622;23.194;2023-07-31T10:41:07;2.05;;;1.95;;
5951;SDS011;3001;42.622;23.194;2023-07-31T10:43:35;2.45;;;2.35;;
5951;SDS011;3001;42.622;23.194;2023-07-31T10:46:06;2.08;;;1.98;;
5951;SDS011;3001;42.622;23.194;2023-07-31T10:48:34;2.25;;;2.15;;
5951;SDS011;3001;42.622;23.194;2023-07-31T10:51:06;1.73;;;1.73;;
5951;SDS011;3001;42.622;23.194;2023-07-31T10:53:35;2.17;;;2.08;;
5951;SDS011;3001;42.622;23.194;2023-07-31T10:56:02;3.63;;;2.45;;
5951;SDS011;3001;42.622;23.194;2023-07-31T10:58:30;1.60;;;1.60;;
5951;SDS011;3001;42.622;23.194;2023-07-31T11:00:58;2.00;;;1.90;;
5951;SDS011;3001;42.622;23.194;2023-07-31T11:03:26;2.10;;;2.03;;
5951;SDS011;3001;42.622;23.194;2023-07-31T11:06:07;1.77;;;1.77;;
5951;SDS011;3001;42.622;23.194;2023-07-31T11:08:35;2.05;;;1.95;;
5951;SDS011;3001;42.622;23.194;2023-07-31T11:11:07;1.75;;;1.75;;
5951;SDS011;3001;42.622;23.194;2023-07-31T11:13:39;2.17;;;2.08;;
5951;SDS011;3001;42.622;23.194;2023-07-31T11:16:07;1.75;;;1.75;;
5951;SDS011;3001;42.622;23.194;2023-07-31T11:18:34;1.63;;;1.58;;
5951;SDS011;3001;42.622;23.194;2023-07-31T11:21:01;1.60;;;1.60;;
5951;SDS011;3001;42.622;23.194;2023-07-31T11:23:30;1.70;;;1.70;;
5951;SDS011;3001;42.622;23.194;2023-07-31T11:25:58;1.80;;;1.80;;
5951;SDS011;3001;42.622;23.194;2023-07-31T11:28:30;1.42;;;1.42;;
5951;SDS011;3001;42.622;23.194;2023-07-31T11:30:57;2.10;;;2.00;;
5951;SDS011;3001;42.622;23.194;2023-07-31T11:33:24;2.13;;;2.03;;
5951;SDS011;3001;42.622;23.194;2023-07-31T11:35:51;2.08;;;1.98;;
5951;SDS011;3001;42.622;23.194;2023-07-31T11:38:21;2.10;;;2.00;;
5951;SDS011;3001;42.622;23.194;2023-07-31T11:40:50;1.77;;;1.77;;
5951;SDS011;3001;42.622;23.194;2023-07-31T11:43:17;2.28;;;2.17;;
5951;SDS011;3001;42.622;23.194;2023-07-31T11:45:46;2.15;;;2.05;;
5951;SDS011;3001;42.622;23.194;2023-07-31T11:48:18;1.77;;;1.77;;
5951;SDS011;3001;42.622;23.194;2023-07-31T11:50:46;2.65;;;2.42;;
5951;SDS011;3001;42.622;23.194;2023-07-31T11:53:14;2.20;;;2.10;;
5951;SDS011;3001;42.622;23.194;2023-07-31T11:55:43;2.05;;;2.05;;
5951;SDS011;3001;42.622;23.194;2023-07-31T11:58:11;2.20;;;2.10;;
5951;SDS011;3001;42.622;23.194;2023-07-31T12:00:39;2.75;;;2.65;;
5951;SDS011;3001;42.622;23.194;2023-07-31T12:03:06;2.58;;;2.47;;
5951;SDS011;3001;42.622;23.194;2023-07-31T12:05:33;2.90;;;2.80;;
5951;SDS011;3001;42.622;23.194;2023-07-31T12:08:00;3.15;;;2.95;;
5951;SDS011;3001;42.622;23.194;2023-07-31T12:10:27;2.90;;;2.80;;
5951;SDS011;3001;42.622;23.194;2023-07-31T12:12:55;3.05;;;2.95;;
5951;SDS011;3001;42.622;23.194;2023-07-31T12:15:41;3.47;;;3.38;;
5951;SDS011;3001;42.622;23.194;2023-07-31T12:18:10;5.50;;;5.10;;
5951;SDS011;3001;42.622;23.194;2023-07-31T12:20:41;3.13;;;2.92;;
5951;SDS011;3001;42.622;23.194;2023-07-31T12:23:17;3.08;;;2.97;;
5951;SDS011;3001;42.622;23.194;2023-07-31T12:25:57;3.90;;;3.80;;
5951;SDS011;3001;42.622;23.194;2023-07-31T12:28:26;3.83;;;3.65;;
5951;SDS011;3001;42.622;23.194;2023-07-31T12:30:56;4.43;;;4.22;;
5951;SDS011;3001;42.622;23.194;2023-07-31T12:33:23;5.47;;;5.22;;
5951;SDS011;3001;42.622;23.194;2023-07-31T12:35:50;4.85;;;4.65;;
5951;SDS011;3001;42.622;23.194;2023-07-31T12:38:18;5.18;;;4.93;;
5951;SDS011;3001;42.622;23.194;2023-07-31T12:40:44;5.75;;;5.45;;
5951;SDS011;3001;42.622;23.194;2023-07-31T12:43:11;5.72;;;5.53;;
5951;SDS011;3001;42.622;23.194;2023-07-31T12:45:38;5.57;;;5.38;;
5951;SDS011;3001;42.622;23.194;2023-07-31T12:48:06;5.78;;;5.57;;
5951;SDS011;3001;42.622;23.194;2023-07-31T12:50:32;6.70;;;6.05;;
5951;SDS011;3001;42.622;23.194;2023-07-31T12:53:01;5.53;;;5.22;;
5951;SDS011;3001;42.622;23.194;2023-07-31T12:55:29;5.28;;;5.07;;
5951;SDS011;3001;42.622;23.194;2023-07-31T12:57:55;4.97;;;4.78;;
5951;SDS011;3001;42.622;23.194;2023-07-31T13:00:22;5.25;;;5.05;;
5951;SDS011;3001;42.622;23.194;2023-07-31T13:02:49;6.07;;;5.68;;
5951;SDS011;3001;42.622;23.194;2023-07-31T13:05:17;6.75;;;6.45;;
5951;SDS011;3001;42.622;23.194;2023-07-31T13:07:44;7.45;;;7.10;;
5951;SDS011;3001;42.622;23.194;2023-07-31T13:10:11;6.95;;;6.65;;
5951;SDS011;3001;42.622;23.194;2023-07-31T13:12:38;7.35;;;7.05;;
5951;SDS011;3001;42.622;23.194;2023-07-31T13:15:05;7.10;;;6.80;;
5951;SDS011;3001;42.622;23.194;2023-07-31T13:17:32;7.40;;;7.10;;
5951;SDS011;3001;42.622;23.194;2023-07-31T13:19:59;7.22;;;6.82;;
5951;SDS011;3001;42.622;23.194;2023-07-31T13:22:27;6.93;;;6.43;;
5951;SDS011;3001;42.622;23.194;2023-07-31T13:24:54;7.38;;;6.72;;
5951;SDS011;3001;42.622;23.194;2023-07-31T13:27:21;7.30;;;6.90;;
5951;SDS011;3001;42.622;23.194;2023-07-31T13:29:49;6.53;;;6.22;;
5951;SDS011;3001;42.622;23.194;2023-07-31T13:32:16;6.88;;;6.57;;
5951;SDS011;3001;42.622;23.194;2023-07-31T13:34:44;6.35;;;6.07;;
5951;SDS011;3001;42.622;23.194;2023-07-31T13:37:12;6.97;;;6.32;;
5951;SDS011;3001;42.622;23.194;2023-07-31T13:39:40;7.32;;;6.93;;
5951;SDS011;3001;42.622;23.194;2023-07-31T13:42:07;6.55;;;6.25;;
5951;SDS011;3001;42.622;23.194;2023-07-31T13:44:37;6.32;;;6.03;;
5951;SDS011;3001;42.622;23.194;2023-07-31T13:47:03;6.40;;;6.10;;
5951;SDS011;3001;42.622;23.194;2023-07-31T13:49:30;6.65;;;6.40;;
5951;SDS011;3001;42.622;23.194;2023-07-31T13:51:57;6.65;;;6.35;;
5951;SDS011;3001;42.622;23.194;2023-07-31T13:54:24;6.80;;;6.32;;
5951;SDS011;3001;42.622;23.194;2023-07-31T13:56:53;5.57;;;5.28;;
5951;SDS011;3001;42.622;23.194;2023-07-31T13:59:20;5.57;;;5.30;;
5951;SDS011;3001;42.622;23.194;2023-07-31T14:01:47;5.50;;;5.30;;
5951;SDS011;3001;42.622;23.194;2023-07-31T14:04:14;5.35;;;5.13;;
5951;SDS011;3001;42.622;23.194;2023-07-31T14:06:40;4.93;;;4.72;;
5951;SDS011;3001;42.622;23.194;2023-07-31T14:09:07;4.95;;;4.70;;
5951;SDS011;3001;42.622;23.194;2023-07-31T14:11:34;5.10;;;4.90;;
5951;SDS011;3001;42.622;23.194;2023-07-31T14:14:02;4.78;;;4.57;;
5951;SDS011;3001;42.622;23.194;2023-07-31T14:16:29;4.20;;;4.10;;
5951;SDS011;3001;42.622;23.194;2023-07-31T14:18:56;4.28;;;4.18;;
5951;SDS011;3001;42.622;23.194;2023-07-31T14:21:24;4.43;;;4.22;;
5951;SDS011;3001;42.622;23.194;2023-07-31T14:23:51;4.50;;;4.32;;
5951;SDS011;3001;42.622;23.194;2023-07-31T14:26:17;4.30;;;4.10;;
5951;SDS011;3001;42.622;23.194;2023-07-31T14:28:44;4.40;;;4.20;;
5951;SDS011;3001;42.622;23.194;2023-07-31T14:31:12;4.25;;;4.05;;
5951;SDS011;3001;42.622;23.194;2023-07-31T14:33:39;3.92;;;3.83;;
5951;SDS011;3001;42.622;23.194;2023-07-31T14:36:05;4.40;;;4.10;;
5951;SDS011;3001;42.622;23.194;2023-07-31T14:38:32;3.75;;;3.65;;
5951;SDS011;3001;42.622;23.194;2023-07-31T14:40:59;8.45;;;4.32;;
5951;SDS011;3001;42.622;23.194;2023-07-31T14:43:25;4.10;;;3.90;;
5951;SDS011;3001;42.622;23.194;2023-07-31T14:45:52;4.10;;;4.00;;
5951;SDS011;3001;42.622;23.194;2023-07-31T14:48:22;4.30;;;4.10;;
5951;SDS011;3001;42.622;23.194;2023-07-31T14:50:49;4.57;;;4.32;;
5951;SDS011;3001;42.622;23.194;2023-07-31T14:53:16;4.50;;;4.30;;
5951;SDS011;3001;42.622;23.194;2023-07-31T14:55:42;4.88;;;4.10;;
5951;SDS011;3001;42.622;23.194;2023-07-31T14:58:09;4.03;;;3.83;;
5951;SDS011;3001;42.622;23.194;2023-07-31T15:00:36;3.50;;;3.40;;
5951;SDS011;3001;42.622;23.194;2023-07-31T15:03:03;6.80;;;6.50;;
5951;SDS011;3001;42.622;23.194;2023-07-31T15:05:31;5.80;;;5.30;;
5951;SDS011;3001;42.622;23.194;2023-07-31T15:07:57;3.90;;;3.53;;
5951;SDS011;3001;42.622;23.194;2023-07-31T15:10:24;4.35;;;4.15;;
5951;SDS011;3001;42.622;23.194;2023-07-31T15:12:51;4.18;;;3.97;;
5951;SDS011;3001;42.622;23.194;2023-07-31T15:15:17;3.85;;;3.75;;
5951;SDS011;3001;42.622;23.194;2023-07-31T15:17:44;4.18;;;3.97;;
5951;SDS011;3001;42.622;23.194;2023-07-31T15:20:11;3.63;;;3.50;;
5951;SDS011;3001;42.622;23.194;2023-07-31T15:22:39;3.47;;;3.38;;
5951;SDS011;3001;42.622;23.194;2023-07-31T15:25:06;3.42;;;3.28;;
5951;SDS011;3001;42.622;23.194;2023-07-31T15:27:34;2.75;;;2.65;;
5951;SDS011;3001;42.622;23.194;2023-07-31T15:30:00;3.10;;;3.00;;
5951;SDS011;3001;42.622;23.194;2023-07-31T15:32:30;3.08;;;2.97;;
5951;SDS011;3001;42.622;23.194;2023-07-31T15:34:56;3.45;;;3.15;;
5951;SDS011;3001;42.622;23.194;2023-07-31T15:37:23;3.10;;;3.00;;
5951;SDS011;3001;42.622;23.194;2023-07-31T15:39:51;2.70;;;2.60;;
5951;SDS011;3001;42.622;23.194;2023-07-31T15:42:18;2.53;;;2.42;;
5951;SDS011;3001;42.622;23.194;2023-07-31T15:44:45;2.42;;;2.33;;
5951;SDS011;3001;42.622;23.194;2023-07-31T15:47:11;2.65;;;2.55;;
5951;SDS011;3001;42.622;23.194;2023-07-31T15:49:38;2.40;;;2.30;;